Time;durP1;ratioP1;P1;durP2;ratioP2;P2;SDS_P1;SDS_P2;PMS_P1;PMS_P2;Temp;Humidity;BMP_temperature;BMP_pressure;BME280_temperature;BME280_humidity;BME280_pressure;Samples;Min_cycle;Max_cycle;Signal;HPM_P1;HPM_P2
2021/10/13 00:02:16;;;;;;;5.70;1.30;;;;;;;;;;5063656;28;20131;-67
2021/10/13 00:04:43;;;;;;;6.18;1.70;;;;;;;;;;5066843;28;20083;-67
2021/10/13 00:07:10;;;;;;;3.80;1.90;;;;;;;;;;5065466;28;20076;-67
2021/10/13 00:09:36;;;;;;;5.05;1.80;;;;;;;;;;5065390;28;20481;-67
2021/10/13 00:12:03;;;;;;;2.63;1.97;;;;;;;;;;5063630;28;20143;-67
2021/10/13 00:14:31;;;;;;;6.03;2.08;;;;;;;;;;5059760;28;20489;-67
2021/10/13 00:17:06;;;;;;;3.83;1.52;;;;;;;;;;5061132;28;20087;-67
2021/10/13 00:19:33;;;;;;;3.60;1.50;;;;;;;;;;5062863;28;20552;-66
2021/10/13 00:22:00;;;;;;;2.20;1.70;;;;;;;;;;5064263;28;20051;-66
2021/10/13 00:24:26;;;;;;;2.15;1.58;;;;;;;;;;5068260;28;20076;-67
2021/10/13 00:26:53;;;;;;;3.03;1.70;;;;;;;;;;5065531;28;20105;-67
2021/10/13 00:29:20;;;;;;;5.88;1.48;;;;;;;;;;5059655;28;20132;-66
2021/10/13 00:31:46;;;;;;;4.32;1.60;;;;;;;;;;5063798;28;20508;-67
2021/10/13 00:34:15;;;;;;;3.53;1.58;;;;;;;;;;5062063;28;20140;-67
2021/10/13 00:36:41;;;;;;;5.38;1.70;;;;;;;;;;5064909;28;20135;-66
2021/10/13 00:39:08;;;;;;;4.55;1.55;;;;;;;;;;5065748;28;20741;-67
2021/10/13 00:41:35;;;;;;;2.15;1.27;;;;;;;;;;5064941;28;20139;-67
2021/10/13 00:44:01;;;;;;;5.35;1.40;;;;;;;;;;5066454;28;20044;-66
2021/10/13 00:46:27;;;;;;;1.98;1.42;;;;;;;;;;5062514;28;20127;-67
2021/10/13 00:48:54;;;;;;;2.85;1.35;;;;;;;;;;5063801;28;20107;-67
2021/10/13 00:51:20;;;;;;;2.67;1.60;;;;;;;;;;5059339;28;20590;-67
2021/10/13 00:53:47;;;;;;;3.78;1.58;;;;;;;;;;5057615;28;20087;-67
2021/10/13 00:56:23;;;;;;;4.32;1.70;;;;;;;;;;5058908;28;20143;-67
2021/10/13 00:58:49;;;;;;;5.60;1.70;;;;;;;;;;5059508;28;20099;-67
2021/10/13 01:01:19;;;;;;;4.73;1.63;;;;;;;;;;5063311;28;20307;-67
2021/10/13 01:04:02;;;;;;;5.03;1.85;;;;;;;;;;5062599;28;20051;-67
2021/10/13 01:06:52;;;;;;;5.18;1.70;;;;;;;;;;5060423;28;20132;-66
2021/10/13 01:09:25;;;;;;;2.60;1.73;;;;;;;;;;5050046;28;20548;-66
2021/10/13 01:12:15;;;;;;;6.97;1.75;;;;;;;;;;5065647;28;20080;-67
2021/10/13 01:15:07;;;;;;;2.25;1.33;;;;;;;;;;5060791;28;20131;-67
2021/10/13 01:17:40;;;;;;;5.18;1.80;;;;;;;;;;5060212;28;20496;-66
2021/10/13 01:20:11;;;;;;;2.78;1.48;;;;;;;;;;5064220;28;20172;-67
2021/10/13 01:22:56;;;;;;;5.35;1.95;;;;;;;;;;5063740;28;20508;-66
2021/10/13 01:25:41;;;;;;;3.97;1.50;;;;;;;;;;5068229;28;20524;-67
2021/10/13 01:28:09;;;;;;;5.60;1.83;;;;;;;;;;5066060;28;20079;-67
2021/10/13 01:30:39;;;;;;;2.20;1.67;;;;;;;;;;5063755;28;20048;-66
2021/10/13 01:33:13;;;;;;;4.57;1.73;;;;;;;;;;5064415;28;20505;-66
2021/10/13 01:35:42;;;;;;;2.00;1.33;;;;;;;;;;5062788;28;20094;-66
2021/10/13 01:38:12;;;;;;;3.83;1.70;;;;;;;;;;5057776;28;20079;-66
2021/10/13 01:40:42;;;;;;;3.33;1.73;;;;;;;;;;5062733;28;20517;-66
2021/10/13 01:43:10;;;;;;;6.63;1.80;;;;;;;;;;5059275;28;20134;-67
2021/10/13 01:45:37;;;;;;;3.97;1.70;;;;;;;;;;5065271;28;20044;-66
2021/10/13 01:48:04;;;;;;;4.65;1.60;;;;;;;;;;5059129;28;20052;-66
2021/10/13 01:50:32;;;;;;;2.17;1.52;;;;;;;;;;5059850;28;20096;-67
2021/10/13 01:52:59;;;;;;;1.73;1.15;;;;;;;;;;5058477;28;20596;-66
2021/10/13 01:55:26;;;;;;;3.43;1.83;;;;;;;;;;5065295;28;20052;-67
2021/10/13 01:57:54;;;;;;;2.13;1.50;;;;;;;;;;5062230;28;20124;-67
2021/10/13 02:00:22;;;;;;;5.95;1.55;;;;;;;;;;5062995;28;20136;-66
2021/10/13 02:02:49;;;;;;;7.82;1.70;;;;;;;;;;5068146;28;20080;-66
2021/10/13 02:05:15;;;;;;;;;;;;;;;;;;5070138;28;20135;-66
2021/10/13 02:07:43;;;;;;;4.32;1.60;;;;;;;;;;5066727;28;19967;-66
2021/10/13 02:10:12;;;;;;;3.60;1.70;;;;;;;;;;5067029;28;20050;-66
2021/10/13 02:12:43;;;;;;;4.38;1.50;;;;;;;;;;5064272;28;20088;-67
2021/10/13 02:15:11;;;;;;;1.48;1.30;;;;;;;;;;5067693;28;20048;-67
2021/10/13 02:17:38;;;;;;;2.97;1.70;;;;;;;;;;5067096;28;20547;-66
2021/10/13 02:20:05;;;;;;;6.20;2.10;;;;;;;;;;5065913;28;20123;-66
2021/10/13 02:22:31;;;;;;;2.67;1.52;;;;;;;;;;5066471;28;20441;-66
2021/10/13 02:24:58;;;;;;;6.05;1.40;;;;;;;;;;5068153;28;20500;-66
2021/10/13 02:27:31;;;;;;;2.85;1.50;;;;;;;;;;5068117;28;20462;-66
2021/10/13 02:29:57;;;;;;;4.53;1.50;;;;;;;;;;5062772;28;20095;-66
2021/10/13 02:32:24;;;;;;;3.97;1.87;;;;;;;;;;5062169;28;20464;-67
2021/10/13 02:34:52;;;;;;;3.17;1.45;;;;;;;;;;5062785;28;20079;-67
2021/10/13 02:37:18;;;;;;;3.78;2.00;;;;;;;;;;5065257;28;20056;-67
2021/10/13 02:39:45;;;;;;;4.15;1.80;;;;;;;;;;5065155;28;20077;-66
2021/10/13 02:42:11;;;;;;;2.80;1.70;;;;;;;;;;5067130;28;20072;-67
2021/10/13 02:44:38;;;;;;;3.25;1.80;;;;;;;;;;5068633;28;20119;-67
2021/10/13 02:47:17;;;;;;;2.80;1.70;;;;;;;;;;5064676;28;20137;-66
2021/10/13 02:49:53;;;;;;;2.15;1.50;;;;;;;;;;5062805;28;20506;-67
2021/10/13 02:52:24;;;;;;;7.20;1.80;;;;;;;;;;5065667;28;20075;-67
2021/10/13 02:54:56;;;;;;;9.43;1.67;;;;;;;;;;5067210;28;20088;-66
2021/10/13 02:57:26;;;;;;;3.67;1.80;;;;;;;;;;5065388;28;20080;-66
2021/10/13 02:59:53;;;;;;;3.22;1.35;;;;;;;;;;5055559;28;20124;-67
2021/10/13 03:02:23;;;;;;;3.53;1.40;;;;;;;;;;5070272;28;20175;-67
2021/10/13 03:04:52;;;;;;;2.70;1.98;;;;;;;;;;5069308;28;20135;-66
2021/10/13 03:07:24;;;;;;;4.35;1.45;;;;;;;;;;5070125;28;20119;-67
2021/10/13 03:09:55;;;;;;;6.20;1.80;;;;;;;;;;5064625;28;20124;-67
2021/10/13 03:12:23;;;;;;;2.13;1.17;;;;;;;;;;5066323;28;20527;-66
2021/10/13 03:14:51;;;;;;;2.42;1.63;;;;;;;;;;5066543;28;20124;-67
2021/10/13 03:17:21;;;;;;;1.60;1.27;;;;;;;;;;5064345;28;20198;-67
2021/10/13 03:19:48;;;;;;;5.50;1.50;;;;;;;;;;5065630;28;20095;-67
2021/10/13 03:22:15;;;;;;;6.35;1.40;;;;;;;;;;5064005;28;20095;-66
2021/10/13 03:24:41;;;;;;;2.72;1.50;;;;;;;;;;5064795;28;20492;-67
2021/10/13 03:27:08;;;;;;;3.80;1.40;;;;;;;;;;5068601;28;20074;-66
2021/10/13 03:29:38;;;;;;;3.95;1.55;;;;;;;;;;5067559;28;20139;-66
2021/10/13 03:32:04;;;;;;;2.20;1.65;;;;;;;;;;5066762;28;20083;-67
2021/10/13 03:34:31;;;;;;;2.20;1.50;;;;;;;;;;5062193;28;20072;-66
2021/10/13 03:36:57;;;;;;;3.85;1.52;;;;;;;;;;5058234;28;20131;-66
2021/10/13 03:39:24;;;;;;;4.03;1.52;;;;;;;;;;5064959;28;20045;-67
2021/10/13 03:41:50;;;;;;;4.88;1.50;;;;;;;;;;5069287;28;20077;-66
2021/10/13 03:44:19;;;;;;;1.92;1.30;;;;;;;;;;5065973;28;20128;-66
2021/10/13 03:46:45;;;;;;;2.25;1.15;;;;;;;;;;5068959;28;20094;-67
2021/10/13 03:49:12;;;;;;;2.30;1.30;;;;;;;;;;5060755;28;20143;-67
2021/10/13 03:51:38;;;;;;;1.90;1.20;;;;;;;;;;5063698;28;20567;-66
2021/10/13 03:54:08;;;;;;;6.15;1.63;;;;;;;;;;5064462;28;20065;-67
2021/10/13 03:56:35;;;;;;;1.92;1.23;;;;;;;;;;5064326;28;20136;-66
2021/10/13 03:59:01;;;;;;;5.05;1.40;;;;;;;;;;5064889;28;20131;-66
2021/10/13 04:01:27;;;;;;;1.98;1.23;;;;;;;;;;5062757;28;20080;-66
2021/10/13 04:03:55;;;;;;;2.22;1.30;;;;;;;;;;5065795;28;20102;-66
2021/10/13 04:06:21;;;;;;;5.32;1.73;;;;;;;;;;5066309;28;20475;-67
2021/10/13 04:08:47;;;;;;;3.53;1.33;;;;;;;;;;5068015;28;20072;-66
2021/10/13 04:11:14;;;;;;;3.78;1.60;;;;;;;;;;5065838;28;20080;-66
2021/10/13 04:13:40;;;;;;;3.70;1.30;;;;;;;;;;5066907;28;20132;-67
2021/10/13 04:16:07;;;;;;;2.35;1.30;;;;;;;;;;5060288;28;20130;-66
2021/10/13 04:18:34;;;;;;;2.25;1.30;;;;;;;;;;5068178;28;20053;-66
2021/10/13 04:21:00;;;;;;;1.70;1.38;;;;;;;;;;5065171;28;20063;-67
2021/10/13 04:23:26;;;;;;;4.47;1.60;;;;;;;;;;5063883;28;20143;-66
2021/10/13 04:25:53;;;;;;;4.10;1.40;;;;;;;;;;5066371;28;20497;-66
2021/10/13 04:28:20;;;;;;;3.15;1.80;;;;;;;;;;5065521;28;20105;-66
2021/10/13 04:30:47;;;;;;;3.25;1.50;;;;;;;;;;5065025;28;20055;-67
2021/10/13 04:33:14;;;;;;;4.97;1.80;;;;;;;;;;5055726;28;20576;-66
2021/10/13 04:35:40;;;;;;;2.17;1.50;;;;;;;;;;5059124;28;20586;-66
2021/10/13 04:38:07;;;;;;;3.53;1.38;;;;;;;;;;5066619;28;20136;-66
2021/10/13 04:40:34;;;;;;;;;;;;;;;;;;5064729;28;20083;-66
2021/10/13 04:43:01;;;;;;;3.25;1.50;;;;;;;;;;5066754;28;19963;-66
2021/10/13 04:45:27;;;;;;;1.80;1.20;;;;;;;;;;5064954;28;20135;-66
2021/10/13 04:47:54;;;;;;;4.07;1.50;;;;;;;;;;5062501;28;20125;-66
2021/10/13 04:50:20;;;;;;;1.42;1.13;;;;;;;;;;5062695;28;20135;-66
2021/10/13 04:52:47;;;;;;;4.47;1.65;;;;;;;;;;5060714;28;20099;-66
2021/10/13 04:55:16;;;;;;;1.90;1.20;;;;;;;;;;5064277;28;20151;-66
2021/10/13 04:57:42;;;;;;;3.88;1.20;;;;;;;;;;5064122;28;20591;-66
2021/10/13 05:00:09;;;;;;;2.65;1.40;;;;;;;;;;5063871;28;20077;-66
2021/10/13 05:02:36;;;;;;;5.32;1.40;;;;;;;;;;5061998;28;20126;-66
2021/10/13 05:05:03;;;;;;;4.57;1.50;;;;;;;;;;5062114;28;20041;-66
2021/10/13 05:07:29;;;;;;;5.68;1.33;;;;;;;;;;5060809;28;20128;-67
2021/10/13 05:09:56;;;;;;;2.95;1.38;;;;;;;;;;5063183;28;20076;-66
2021/10/13 05:12:22;;;;;;;2.15;1.25;;;;;;;;;;5061503;28;20055;-66
2021/10/13 05:14:49;;;;;;;1.55;1.35;;;;;;;;;;5063132;28;20095;-66
2021/10/13 05:17:15;;;;;;;4.35;1.48;;;;;;;;;;5062695;28;20135;-66
2021/10/13 05:19:42;;;;;;;1.77;1.47;;;;;;;;;;5060495;28;20088;-66
2021/10/13 05:22:08;;;;;;;3.30;1.40;;;;;;;;;;5061432;28;20136;-66
2021/10/13 05:24:35;;;;;;;5.38;1.23;;;;;;;;;;5064787;28;20124;-66
2021/10/13 05:27:01;;;;;;;2.30;1.40;;;;;;;;;;5059605;28;20079;-66
2021/10/13 05:29:28;;;;;;;4.15;1.70;;;;;;;;;;5063924;28;20512;-66
2021/10/13 05:31:55;;;;;;;1.38;1.10;;;;;;;;;;5062569;28;20132;-66
2021/10/13 05:34:21;;;;;;;4.13;1.90;;;;;;;;;;5058103;28;20078;-66
2021/10/13 05:36:47;;;;;;;3.03;1.70;;;;;;;;;;5059032;28;20159;-66
2021/10/13 05:39:14;;;;;;;3.22;1.75;;;;;;;;;;5063315;28;20505;-66
2021/10/13 05:41:40;;;;;;;6.18;1.92;;;;;;;;;;5058837;28;20137;-66
2021/10/13 05:44:07;;;;;;;4.05;1.80;;;;;;;;;;5063429;28;20131;-66
2021/10/13 05:46:33;;;;;;;2.47;1.60;;;;;;;;;;5044478;28;20060;-66
2021/10/13 05:49:00;;;;;;;2.33;1.52;;;;;;;;;;5062698;28;20639;-66
2021/10/13 05:51:26;;;;;;;5.22;2.28;;;;;;;;;;5065761;28;20470;-66
2021/10/13 05:53:53;;;;;;;2.43;1.50;;;;;;;;;;5063479;28;20591;-66
2021/10/13 05:56:20;;;;;;;3.45;1.55;;;;;;;;;;5062548;28;20136;-66
2021/10/13 05:58:47;;;;;;;6.53;1.70;;;;;;;;;;5059183;28;20087;-66
2021/10/13 06:01:18;;;;;;;3.92;1.70;;;;;;;;;;5062450;28;20495;-66
2021/10/13 06:03:45;;;;;;;5.25;2.10;;;;;;;;;;5060689;28;20123;-66
2021/10/13 06:06:11;;;;;;;7.68;1.90;;;;;;;;;;5062979;28;20128;-66
2021/10/13 06:08:38;;;;;;;2.33;1.25;;;;;;;;;;5060621;28;20091;-66
2021/10/13 06:11:05;;;;;;;2.78;1.60;;;;;;;;;;5059802;28;20135;-66
2021/10/13 06:13:31;;;;;;;4.97;1.40;;;;;;;;;;5064929;28;20508;-66
2021/10/13 06:15:58;;;;;;;3.45;1.70;;;;;;;;;;5046679;28;20075;-67
2021/10/13 06:18:24;;;;;;;4.65;1.60;;;;;;;;;;5064223;28;20056;-67
2021/10/13 06:20:51;;;;;;;3.20;1.40;;;;;;;;;;5057270;28;20150;-66
2021/10/13 06:23:17;;;;;;;4.53;1.20;;;;;;;;;;5055752;28;20637;-66
2021/10/13 06:25:44;;;;;;;4.00;1.58;;;;;;;;;;5060961;28;20379;-66
2021/10/13 06:28:10;;;;;;;4.32;1.85;;;;;;;;;;5061093;28;20075;-67
2021/10/13 06:30:42;;;;;;;2.78;1.33;;;;;;;;;;5066392;28;20091;-66
2021/10/13 06:33:09;;;;;;;2.17;1.65;;;;;;;;;;5060601;28;20128;-66
2021/10/13 06:35:36;;;;;;;3.85;1.17;;;;;;;;;;5063178;28;20055;-66
2021/10/13 06:38:02;;;;;;;1.90;1.20;;;;;;;;;;5062274;28;20076;-66
2021/10/13 06:40:29;;;;;;;2.83;1.52;;;;;;;;;;5064401;28;20844;-66
2021/10/13 06:42:55;;;;;;;2.67;1.48;;;;;;;;;;5059293;28;20127;-66
2021/10/13 06:45:22;;;;;;;8.15;2.13;;;;;;;;;;5059470;28;20040;-66
2021/10/13 06:47:49;;;;;;;4.50;1.55;;;;;;;;;;5058185;28;20128;-66
2021/10/13 06:50:15;;;;;;;2.25;1.48;;;;;;;;;;5051529;28;20084;-66
2021/10/13 06:52:42;;;;;;;2.85;1.70;;;;;;;;;;5062438;28;20091;-67
2021/10/13 06:55:09;;;;;;;3.13;1.77;;;;;;;;;;5059580;28;20052;-66
2021/10/13 06:57:36;;;;;;;5.20;1.70;;;;;;;;;;5071117;28;20044;-66
2021/10/13 07:00:04;;;;;;;4.20;1.90;;;;;;;;;;5063911;28;20127;-67
2021/10/13 07:02:30;;;;;;;4.20;1.55;;;;;;;;;;5064648;28;20615;-66
2021/10/13 07:04:57;;;;;;;2.67;1.40;;;;;;;;;;5064947;28;20071;-66
2021/10/13 07:07:24;;;;;;;3.47;1.33;;;;;;;;;;5069867;28;20165;-66
2021/10/13 07:09:50;;;;;;;3.20;2.38;;;;;;;;;;5065472;28;20132;-67
2021/10/13 07:12:17;;;;;;;4.22;1.55;;;;;;;;;;5058537;28;20124;-66
2021/10/13 07:14:43;;;;;;;1.48;1.33;;;;;;;;;;5060403;28;20140;-67
2021/10/13 07:17:10;;;;;;;2.83;1.50;;;;;;;;;;5062647;28;20160;-66
2021/10/13 07:19:37;;;;;;;2.25;1.42;;;;;;;;;;5065717;28;20083;-67
2021/10/13 07:22:03;;;;;;;4.90;1.52;;;;;;;;;;5061855;28;20053;-67
2021/10/13 07:24:30;;;;;;;4.20;1.63;;;;;;;;;;5064494;28;20052;-66
2021/10/13 07:26:56;;;;;;;4.63;1.80;;;;;;;;;;5067049;28;20369;-66
2021/10/13 07:29:23;;;;;;;2.77;1.70;;;;;;;;;;5066264;28;20132;-66
2021/10/13 07:31:49;;;;;;;4.05;1.80;;;;;;;;;;5064672;28;20127;-66
2021/10/13 07:34:16;;;;;;;4.22;1.58;;;;;;;;;;5063541;28;20079;-66
2021/10/13 07:36:43;;;;;;;3.58;1.90;;;;;;;;;;5054008;28;20133;-66
2021/10/13 07:39:09;;;;;;;5.68;1.65;;;;;;;;;;5064877;28;20037;-67
2021/10/13 07:41:35;;;;;;;2.88;1.55;;;;;;;;;;5064009;28;20127;-66
2021/10/13 07:44:02;;;;;;;6.10;1.47;;;;;;;;;;5061624;28;20091;-66
2021/10/13 07:46:29;;;;;;;3.85;1.40;;;;;;;;;;5064203;28;20131;-66
2021/10/13 07:48:55;;;;;;;2.22;1.52;;;;;;;;;;5063863;28;20051;-67
2021/10/13 07:51:22;;;;;;;3.00;1.40;;;;;;;;;;5065692;28;20419;-66
2021/10/13 07:53:48;;;;;;;3.90;1.75;;;;;;;;;;5066035;28;20099;-66
2021/10/13 07:56:15;;;;;;;1.85;1.20;;;;;;;;;;5058651;28;20128;-66
2021/10/13 07:58:41;;;;;;;3.50;1.35;;;;;;;;;;5065210;28;20136;-66
2021/10/13 08:01:08;;;;;;;5.78;1.60;;;;;;;;;;5067291;28;20461;-66
2021/10/13 08:03:34;;;;;;;6.45;1.42;;;;;;;;;;5062120;28;20431;-66
2021/10/13 08:06:02;;;;;;;2.30;1.20;;;;;;;;;;5064449;28;20592;-66
2021/10/13 08:08:28;;;;;;;5.60;1.55;;;;;;;;;;5058884;28;20099;-66
2021/10/13 08:10:55;;;;;;;3.33;1.30;;;;;;;;;;5062335;28;20132;-66
2021/10/13 08:13:21;;;;;;;3.07;1.17;;;;;;;;;;5064166;28;20090;-66
2021/10/13 08:15:48;;;;;;;2.95;1.02;;;;;;;;;;5051603;28;20132;-66
2021/10/13 08:18:14;;;;;;;3.70;1.15;;;;;;;;;;5062387;28;20053;-67
2021/10/13 08:20:43;;;;;;;3.97;0.98;;;;;;;;;;5063664;28;20094;-66
2021/10/13 08:23:10;;;;;;;1.75;1.20;;;;;;;;;;5039306;28;20124;-66
2021/10/13 08:25:36;;;;;;;3.55;1.23;;;;;;;;;;5058475;28;20726;-66
2021/10/13 08:28:03;;;;;;;1.65;1.20;;;;;;;;;;5061843;28;20456;-66
2021/10/13 08:30:29;;;;;;;2.88;1.40;;;;;;;;;;5059518;28;20076;-66
2021/10/13 08:32:56;;;;;;;2.13;1.13;;;;;;;;;;5060084;28;20049;-66
2021/10/13 08:35:22;;;;;;;2.90;1.15;;;;;;;;;;5063730;28;20048;-66
2021/10/13 08:37:49;;;;;;;4.68;1.00;;;;;;;;;;5061847;28;20469;-66
2021/10/13 08:40:15;;;;;;;3.13;1.40;;;;;;;;;;5062124;28;20648;-66
2021/10/13 08:42:55;;;;;;;1.90;1.30;;;;;;;;;;5065187;28;20517;-66
2021/10/13 08:45:22;;;;;;;2.35;1.10;;;;;;;;;;5061722;28;20457;-66
2021/10/13 08:47:49;;;;;;;1.85;1.05;;;;;;;;;;5063005;28;20079;-67
2021/10/13 08:50:15;;;;;;;4.47;1.20;;;;;;;;;;5063584;28;20131;-66
2021/10/13 08:52:45;;;;;;;3.78;1.17;;;;;;;;;;5062108;28;20076;-66
2021/10/13 08:55:12;;;;;;;5.40;1.30;;;;;;;;;;5057957;28;20140;-67
2021/10/13 08:57:39;;;;;;;1.77;1.07;;;;;;;;;;5060723;28;20132;-67
2021/10/13 09:00:06;;;;;;;2.63;1.00;;;;;;;;;;5065081;28;20068;-66
2021/10/13 09:02:37;;;;;;;2.75;1.30;;;;;;;;;;5063489;28;20083;-67
2021/10/13 09:05:08;;;;;;;2.20;1.10;;;;;;;;;;5058810;28;20048;-67
2021/10/13 09:07:35;;;;;;;4.35;1.05;;;;;;;;;;5061552;28;20102;-67
2021/10/13 09:10:07;;;;;;;2.55;1.02;;;;;;;;;;5059840;28;20103;-67
2021/10/13 09:12:36;;;;;;;1.70;0.93;;;;;;;;;;5063463;28;20041;-67
2021/10/13 09:15:13;;;;;;;1.52;0.95;;;;;;;;;;5062823;28;20140;-67
2021/10/13 09:17:57;;;;;;;2.28;1.10;;;;;;;;;;5059332;28;20084;-67
2021/10/13 09:20:26;;;;;;;1.23;0.82;;;;;;;;;;5058280;28;20542;-67
2021/10/13 09:22:55;;;;;;;1.52;0.98;;;;;;;;;;5062495;28;20056;-66
2021/10/13 09:25:21;;;;;;;2.97;1.50;;;;;;;;;;5055991;28;20084;-66
2021/10/13 09:27:48;;;;;;;1.60;0.83;;;;;;;;;;5057405;28;20132;-67
2021/10/13 09:30:14;;;;;;;4.40;1.05;;;;;;;;;;5059234;28;20874;-67
2021/10/13 09:32:41;;;;;;;1.10;0.73;;;;;;;;;;5062821;28;20072;-67
2021/10/13 09:35:08;;;;;;;1.73;0.90;;;;;;;;;;5064602;28;20079;-66
2021/10/13 09:37:48;;;;;;;2.55;0.88;;;;;;;;;;5059670;28;20131;-67
2021/10/13 09:40:25;;;;;;;1.83;0.95;;;;;;;;;;5059908;28;20073;-67
2021/10/13 09:42:53;;;;;;;1.02;0.68;;;;;;;;;;5058554;28;20457;-67
2021/10/13 09:45:20;;;;;;;1.40;0.70;;;;;;;;;;5058102;28;20078;-67
2021/10/13 09:47:55;;;;;;;0.90;0.77;;;;;;;;;;5058514;28;20063;-67
2021/10/13 09:50:22;;;;;;;3.53;0.82;;;;;;;;;;5052796;28;20077;-67
2021/10/13 09:52:48;;;;;;;3.53;0.63;;;;;;;;;;5065444;28;20079;-67
2021/10/13 09:55:14;;;;;;;2.53;0.85;;;;;;;;;;5066204;28;20492;-67
2021/10/13 09:57:42;;;;;;;1.88;1.00;;;;;;;;;;5063461;28;20136;-67
2021/10/13 10:00:13;;;;;;;1.23;0.75;;;;;;;;;;5064161;28;20086;-67
2021/10/13 10:02:48;;;;;;;2.85;0.88;;;;;;;;;;5065718;28;20088;-66
2021/10/13 10:05:16;;;;;;;0.90;0.60;;;;;;;;;;5066892;28;20052;-67
2021/10/13 10:07:46;;;;;;;0.70;0.50;;;;;;;;;;5060509;28;20072;-67
2021/10/13 10:10:12;;;;;;;2.10;0.55;;;;;;;;;;5056392;28;20132;-67
2021/10/13 10:12:57;;;;;;;1.05;0.88;;;;;;;;;;5060692;28;20491;-67
2021/10/13 10:15:29;;;;;;;0.93;0.60;;;;;;;;;;5060668;28;20073;-66
2021/10/13 10:17:56;;;;;;;0.90;0.68;;;;;;;;;;5055162;28;20092;-67
2021/10/13 10:20:33;;;;;;;1.67;0.77;;;;;;;;;;5063095;28;20394;-67
2021/10/13 10:23:28;;;;;;;0.98;0.65;;;;;;;;;;5065230;28;20060;-67
2021/10/13 10:25:55;;;;;;;0.38;0.35;;;;;;;;;;5066248;28;20492;-66
2021/10/13 10:28:41;;;;;;;2.25;0.70;;;;;;;;;;5064576;28;20481;-67
2021/10/13 10:31:29;;;;;;;0.50;0.30;;;;;;;;;;5060074;28;20088;-67
2021/10/13 10:34:02;;;;;;;1.50;0.40;;;;;;;;;;5066567;28;20064;-67
2021/10/13 10:36:34;;;;;;;1.40;0.52;;;;;;;;;;5059201;28;20081;-67
2021/10/13 10:39:03;;;;;;;1.00;0.73;;;;;;;;;;5054846;28;20080;-67
2021/10/13 10:41:41;;;;;;;0.88;0.50;;;;;;;;;;5064543;28;20527;-67
2021/10/13 10:44:27;;;;;;;0.85;0.43;;;;;;;;;;5062165;28;20083;-67
2021/10/13 10:47:02;;;;;;;0.55;0.40;;;;;;;;;;5064385;28;20102;-67
2021/10/13 10:49:51;;;;;;;1.23;0.75;;;;;;;;;;5059610;28;20095;-67
2021/10/13 10:52:21;;;;;;;0.57;0.57;;;;;;;;;;5065574;28;20132;-67
2021/10/13 10:54:50;;;;;;;0.30;0.20;;;;;;;;;;5067225;28;20330;-67
2021/10/13 10:57:30;;;;;;;2.72;0.47;;;;;;;;;;5069070;28;20072;-67
2021/10/13 10:59:57;;;;;;;0.80;0.43;;;;;;;;;;5067008;28;20048;-67
2021/10/13 11:02:24;;;;;;;1.50;0.63;;;;;;;;;;5068597;28;20076;-67
2021/10/13 11:05:08;;;;;;;1.17;0.55;;;;;;;;;;5064475;28;20048;-67
2021/10/13 11:07:39;;;;;;;2.42;0.88;;;;;;;;;;5056302;28;20048;-67
2021/10/13 11:10:12;;;;;;;0.55;0.40;;;;;;;;;;5063510;28;20127;-67
2021/10/13 11:12:50;;;;;;;1.48;0.50;;;;;;;;;;5066773;28;20565;-67
2021/10/13 11:15:17;;;;;;;0.95;0.40;;;;;;;;;;5068378;28;20052;-67
2021/10/13 11:17:44;;;;;;;0.52;0.30;;;;;;;;;;5063222;28;20116;-67
2021/10/13 11:20:14;;;;;;;1.35;0.60;;;;;;;;;;5065729;28;20088;-67
2021/10/13 11:22:41;;;;;;;0.93;0.45;;;;;;;;;;5063797;28;20068;-67
2021/10/13 11:25:15;;;;;;;0.88;0.40;;;;;;;;;;5065427;28;20811;-67
2021/10/13 11:27:42;;;;;;;0.90;0.50;;;;;;;;;;5062467;28;20072;-67
2021/10/13 11:30:19;;;;;;;0.63;0.32;;;;;;;;;;5060605;28;20079;-67
2021/10/13 11:32:45;;;;;;;0.95;0.40;;;;;;;;;;5065730;28;20087;-67
2021/10/13 11:35:15;;;;;;;0.40;0.40;;;;;;;;;;5062705;28;20068;-69
2021/10/13 11:37:46;;;;;;;1.35;0.75;;;;;;;;;;5061207;28;20122;-67
2021/10/13 11:40:13;;;;;;;1.65;0.55;;;;;;;;;;5068730;28;20045;-67
2021/10/13 11:42:40;;;;;;;0.60;0.50;;;;;;;;;;5062450;28;20091;-67
2021/10/13 11:45:12;;;;;;;1.00;0.40;;;;;;;;;;5064197;28;20048;-67
2021/10/13 11:47:39;;;;;;;1.05;0.52;;;;;;;;;;5064893;28;20446;-67
2021/10/13 11:50:06;;;;;;;1.88;0.70;;;;;;;;;;5065274;28;20045;-67
2021/10/13 11:52:33;;;;;;;0.88;0.43;;;;;;;;;;5064824;28;20048;-67
2021/10/13 11:55:05;;;;;;;1.42;0.63;;;;;;;;;;5062012;28;20132;-67
2021/10/13 11:57:32;;;;;;;0.82;0.50;;;;;;;;;;5055821;28;20083;-67
2021/10/13 12:00:11;;;;;;;0.98;0.47;;;;;;;;;;5060712;28;20056;-67
2021/10/13 12:02:38;;;;;;;1.70;0.40;;;;;;;;;;5062025;28;20090;-67
2021/10/13 12:05:06;;;;;;;1.27;0.55;;;;;;;;;;5065472;28;20106;-67
2021/10/13 12:07:40;;;;;;;1.13;0.43;;;;;;;;;;5060776;28;20588;-67
2021/10/13 12:10:07;;;;;;;1.23;0.47;;;;;;;;;;5066190;28;20060;-67
2021/10/13 12:12:33;;;;;;;1.02;0.70;;;;;;;;;;5061042;28;20088;-67
2021/10/13 12:15:00;;;;;;;5.25;0.77;;;;;;;;;;5060285;28;20119;-67
2021/10/13 12:17:28;;;;;;;0.40;0.40;;;;;;;;;;5065141;28;20476;-67
2021/10/13 12:19:55;;;;;;;3.58;0.63;;;;;;;;;;5068114;28;20059;-67
2021/10/13 12:22:22;;;;;;;0.93;0.63;;;;;;;;;;5063860;28;20069;-67
2021/10/13 12:24:49;;;;;;;0.73;0.57;;;;;;;;;;5061892;28;20143;-67
2021/10/13 12:27:44;;;;;;;2.88;0.90;;;;;;;;;;5062515;28;20474;-68
2021/10/13 12:30:11;;;;;;;0.77;0.65;;;;;;;;;;5050959;28;20612;-67
2021/10/13 12:32:38;;;;;;;1.23;0.50;;;;;;;;;;5064147;28;20079;-67
2021/10/13 12:35:11;;;;;;;1.80;1.00;;;;;;;;;;5064659;28;20600;-67
2021/10/13 12:37:45;;;;;;;0.40;0.40;;;;;;;;;;5063930;28;20084;-67
2021/10/13 12:40:12;;;;;;;1.88;0.63;;;;;;;;;;5063727;28;20516;-67
2021/10/13 12:42:38;;;;;;;1.17;0.65;;;;;;;;;;5065556;28;20068;-67
2021/10/13 12:45:05;;;;;;;1.08;0.57;;;;;;;;;;5065116;28;20066;-68
2021/10/13 12:47:32;;;;;;;2.27;0.80;;;;;;;;;;5057590;28;20123;-67
2021/10/13 12:50:09;;;;;;;2.50;1.00;;;;;;;;;;5061306;28;20084;-67
2021/10/13 12:52:36;;;;;;;1.73;1.03;;;;;;;;;;5064972;28;20402;-68
2021/10/13 12:55:03;;;;;;;2.78;1.08;;;;;;;;;;5060844;28;20045;-67
2021/10/13 12:57:30;;;;;;;2.00;0.82;;;;;;;;;;5062931;28;20133;-67
2021/10/13 12:59:58;;;;;;;2.25;0.60;;;;;;;;;;5057178;28;20135;-67
2021/10/13 13:02:39;;;;;;;1.00;0.80;;;;;;;;;;5059125;28;20048;-67
2021/10/13 13:05:06;;;;;;;1.10;0.55;;;;;;;;;;5061726;28;20049;-67
2021/10/13 13:07:33;;;;;;;2.90;0.77;;;;;;;;;;5060680;28;20140;-67
2021/10/13 13:09:59;;;;;;;3.58;0.60;;;;;;;;;;5064984;28;20329;-67
2021/10/13 13:12:25;;;;;;;3.92;0.98;;;;;;;;;;5055650;28;20486;-67
2021/10/13 13:14:52;;;;;;;1.20;0.40;;;;;;;;;;5061539;28;20118;-67
2021/10/13 13:17:19;;;;;;;0.73;0.50;;;;;;;;;;5059553;28;20131;-67
2021/10/13 13:19:45;;;;;;;0.63;0.50;;;;;;;;;;5063820;28;20131;-67
2021/10/13 13:22:12;;;;;;;1.03;0.40;;;;;;;;;;5062284;28;20040;-67
2021/10/13 13:24:38;;;;;;;0.55;0.43;;;;;;;;;;5063186;28;20311;-67
2021/10/13 13:27:05;;;;;;;0.17;0.13;;;;;;;;;;5063260;28;20124;-67
2021/10/13 13:29:32;;;;;;;2.72;0.55;;;;;;;;;;5065244;28;20120;-67
2021/10/13 13:31:58;;;;;;;0.40;0.30;;;;;;;;;;5062298;28;20045;-67
2021/10/13 13:34:33;;;;;;;1.33;0.55;;;;;;;;;;5068638;28;20490;-67
2021/10/13 13:37:00;;;;;;;1.20;0.40;;;;;;;;;;5061800;28;20668;-67
2021/10/13 13:39:26;;;;;;;0.63;0.60;;;;;;;;;;5061568;28;20339;-67
2021/10/13 13:41:52;;;;;;;0.77;0.47;;;;;;;;;;5059898;28;20080;-67
2021/10/13 13:44:20;;;;;;;0.47;0.43;;;;;;;;;;5061351;28;20103;-67
2021/10/13 13:46:47;;;;;;;0.20;0.20;;;;;;;;;;5061589;28;20579;-67
2021/10/13 13:49:14;;;;;;;;;;;;;;;;;;5065447;28;20052;-67
2021/10/13 13:51:40;;;;;;;0.65;0.38;;;;;;;;;;5065382;28;19924;-67
2021/10/13 13:54:07;;;;;;;1.70;0.57;;;;;;;;;;5063487;28;20475;-67
2021/10/13 13:56:33;;;;;;;1.48;0.65;;;;;;;;;;5063994;28;20470;-67
2021/10/13 13:59:00;;;;;;;2.17;0.40;;;;;;;;;;5067158;28;20083;-67
2021/10/13 14:01:26;;;;;;;1.48;0.50;;;;;;;;;;5069295;28;20071;-67
2021/10/13 14:03:53;;;;;;;1.03;0.70;;;;;;;;;;5068184;28;20049;-67
2021/10/13 14:06:20;;;;;;;2.83;0.60;;;;;;;;;;5061316;28;20370;-68
2021/10/13 14:08:46;;;;;;;0.75;0.50;;;;;;;;;;5062401;28;20147;-67
2021/10/13 14:11:17;;;;;;;0.85;0.55;;;;;;;;;;5064062;28;20183;-67
2021/10/13 14:13:43;;;;;;;0.45;0.38;;;;;;;;;;5066622;28;20095;-67
2021/10/13 14:16:10;;;;;;;0.68;0.55;;;;;;;;;;5068487;28;20044;-67
2021/10/13 14:18:36;;;;;;;0.45;0.40;;;;;;;;;;5068910;28;20061;-67
2021/10/13 14:21:03;;;;;;;1.17;0.40;;;;;;;;;;5070150;28;20515;-67
2021/10/13 14:23:29;;;;;;;0.95;0.55;;;;;;;;;;5070023;28;20136;-67
2021/10/13 14:25:56;;;;;;;1.10;0.50;;;;;;;;;;5061284;28;20045;-67
2021/10/13 14:28:23;;;;;;;1.13;0.40;;;;;;;;;;5068151;28;20051;-67
2021/10/13 14:30:49;;;;;;;0.75;0.50;;;;;;;;;;5058201;28;20155;-67
2021/10/13 14:33:26;;;;;;;0.40;0.40;;;;;;;;;;5067000;28;20099;-67
2021/10/13 14:35:53;;;;;;;0.30;0.30;;;;;;;;;;5065854;28;20076;-67
2021/10/13 14:38:20;;;;;;;1.08;0.38;;;;;;;;;;5068820;28;20479;-67
2021/10/13 14:40:46;;;;;;;0.85;0.45;;;;;;;;;;5052153;28;20649;-67
2021/10/13 14:43:13;;;;;;;2.30;0.70;;;;;;;;;;5066130;28;20516;-67
2021/10/13 14:45:39;;;;;;;1.35;0.73;;;;;;;;;;5067681;28;20334;-67
2021/10/13 14:48:06;;;;;;;2.85;0.52;;;;;;;;;;5064784;28;20079;-67
2021/10/13 14:50:33;;;;;;;1.97;0.50;;;;;;;;;;5064701;28;20071;-67
2021/10/13 14:52:59;;;;;;;2.03;0.47;;;;;;;;;;5067232;28;20338;-68